createdAt,value
2022-09-17T00:01:46.062Z,3.92
2022-09-17T00:04:14.645Z,5.70
2022-09-17T00:06:43.513Z,3.42
2022-09-17T00:09:12.633Z,3.58
2022-09-17T00:11:43.739Z,3.58
2022-09-17T00:14:18.594Z,3.13
2022-09-17T00:16:50.318Z,3.30
2022-09-17T00:19:22.913Z,2.90
2022-09-17T00:21:52.750Z,4.88
2022-09-17T00:24:22.891Z,2.60
2022-09-17T00:31:24.383Z,3.33
2022-09-17T00:33:54.620Z,3.20
2022-09-17T00:36:24.173Z,3.60
2022-09-17T00:38:54.978Z,4.85
2022-09-17T00:41:26.011Z,2.92
2022-09-17T00:43:58.079Z,2.83
2022-09-17T00:46:37.250Z,4.93
2022-09-17T00:49:13.632Z,3.45
2022-09-17T00:51:57.047Z,3.13
2022-09-17T00:54:29.057Z,2.35
2022-09-17T00:56:59.100Z,4.78
2022-09-17T00:59:28.158Z,4.45
2022-09-17T01:01:57.052Z,4.55
2022-09-17T01:04:28.738Z,3.05
2022-09-17T01:07:11.234Z,3.20
2022-09-17T01:09:54.055Z,3.53
2022-09-17T01:12:56.072Z,2.90
2022-09-17T01:15:35.814Z,5.07
2022-09-17T01:18:33.308Z,5.05
2022-09-17T01:21:40.372Z,4.05
2022-09-17T01:24:47.803Z,4.28
2022-09-17T01:28:11.094Z,2.75
2022-09-17T01:31:10.940Z,3.15
2022-09-17T01:33:52.058Z,3.97
2022-09-17T01:36:47.989Z,3.10
2022-09-17T01:39:31.988Z,11.30
2022-09-17T01:42:16.788Z,12.98
2022-09-17T01:44:57.563Z,7.57
2022-09-17T01:47:34.284Z,6.28
2022-09-17T01:50:09.662Z,3.25
2022-09-17T01:52:43.812Z,3.58
2022-09-17T01:55:17.703Z,3.88
2022-09-17T01:57:54.784Z,3.33
2022-09-17T02:00:24.996Z,2.50
2022-09-17T02:03:03.329Z,3.30
2022-09-17T02:05:41.521Z,5.28
2022-09-17T02:08:16.220Z,2.30
2022-09-17T02:10:51.586Z,4.05
2022-09-17T02:13:29.565Z,2.92
2022-09-17T02:16:07.016Z,4.30
2022-09-17T02:18:45.014Z,4.18
2022-09-17T02:21:23.243Z,3.05
2022-09-17T02:24:05.246Z,2.75
2022-09-17T02:26:38.546Z,3.50
2022-09-17T02:29:16.281Z,4.38
2022-09-17T02:31:45.020Z,3.60
2022-09-17T02:34:16.113Z,2.50
2022-09-17T02:36:45.210Z,2.30
2022-09-17T02:39:13.747Z,4.10
2022-09-17T02:41:55.380Z,2.40
2022-09-17T02:44:39.106Z,3.53
2022-09-17T02:47:37.899Z,2.58
2022-09-17T02:50:22.680Z,3.53
2022-09-17T02:53:18.036Z,3.05
2022-09-17T02:55:59.744Z,4.82
2022-09-17T02:58:34.758Z,3.25
2022-09-17T03:01:10.571Z,3.78
2022-09-17T03:03:45.144Z,2.97
2022-09-17T03:06:15.780Z,5.40
2022-09-17T03:08:44.756Z,3.42
2022-09-17T03:11:14.033Z,3.30
2022-09-17T03:13:43.182Z,3.63
2022-09-17T03:16:11.941Z,3.08
2022-09-17T03:18:40.510Z,2.88
2022-09-17T03:21:09.142Z,5.10
2022-09-17T03:23:39.950Z,3.80
2022-09-17T03:26:08.613Z,3.17
2022-09-17T03:28:37.135Z,5.30
2022-09-17T03:31:06.443Z,3.47
2022-09-17T03:33:35.256Z,3.67
2022-09-17T03:36:03.926Z,4.18
2022-09-17T03:38:34.371Z,3.85
2022-09-17T03:41:07.215Z,3.70
2022-09-17T03:43:36.609Z,2.83
2022-09-17T03:46:05.589Z,3.80
2022-09-17T03:48:37.180Z,3.38
2022-09-17T03:51:06.412Z,4.63
2022-09-17T03:53:35.560Z,3.33
2022-09-17T03:56:07.994Z,3.75
2022-09-17T03:58:37.464Z,4.25
2022-09-17T04:01:06.140Z,2.58
2022-09-17T04:03:34.743Z,3.63
2022-09-17T04:06:03.855Z,3.95
2022-09-17T04:08:32.700Z,5.07
2022-09-17T04:11:01.474Z,3.15
2022-09-17T04:13:31.644Z,3.05
2022-09-17T04:16:00.337Z,2.90
2022-09-17T04:18:29.073Z,3.20
2022-09-17T04:20:58.070Z,3.00
2022-09-17T04:23:26.958Z,3.45
2022-09-17T04:25:55.576Z,2.63
2022-09-17T04:28:24.470Z,4.22
2022-09-17T04:30:54.399Z,2.55
2022-09-17T04:33:23.215Z,5.03
2022-09-17T04:35:52.104Z,4.25
2022-09-17T04:38:22.178Z,3.00
2022-09-17T04:40:51.626Z,3.63
2022-09-17T04:43:20.367Z,2.70
2022-09-17T04:45:50.673Z,3.17
2022-09-17T04:48:20.576Z,3.72
2022-09-17T04:50:49.537Z,5.32
2022-09-17T04:53:18.852Z,3.75
2022-09-17T04:55:47.413Z,3.75
2022-09-17T04:58:16.181Z,3.72
2022-09-17T05:00:44.970Z,2.72
2022-09-17T05:07:47.827Z,2.67
2022-09-17T05:10:20.463Z,3.85
2022-09-17T05:12:50.727Z,5.20
2022-09-17T05:15:19.612Z,3.42
2022-09-17T05:17:48.361Z,5.65
2022-09-17T05:20:18.766Z,2.33
2022-09-17T05:22:51.710Z,2.65
2022-09-17T05:25:24.175Z,3.92
2022-09-17T05:27:56.360Z,3.53
2022-09-17T05:30:25.237Z,4.78
2022-09-17T05:33:01.769Z,3.67
2022-09-17T05:35:31.659Z,3.45
2022-09-17T05:38:05.797Z,4.45
2022-09-17T05:40:35.347Z,3.20
2022-09-17T05:43:06.957Z,4.68
2022-09-17T05:45:37.804Z,2.72
2022-09-17T05:48:10.593Z,3.78
2022-09-17T05:50:39.775Z,5.60
2022-09-17T05:53:13.778Z,4.97
2022-09-17T05:55:42.941Z,4.68
2022-09-17T05:58:13.521Z,2.20
2022-09-17T06:00:43.140Z,3.70
2022-09-17T06:03:13.918Z,2.30
2022-09-17T06:05:43.309Z,3.90
2022-09-17T06:08:13.271Z,4.60
2022-09-17T06:10:42.293Z,2.03
2022-09-17T06:13:10.829Z,5.78
2022-09-17T06:15:39.503Z,2.90
2022-09-17T06:18:08.262Z,4.57
2022-09-17T06:20:36.914Z,1.40
2022-09-17T06:23:05.460Z,4.03
2022-09-17T06:25:35.943Z,5.72
2022-09-17T06:28:04.976Z,3.80
2022-09-17T06:30:33.517Z,3.47
2022-09-17T06:33:02.633Z,4.70
2022-09-17T06:35:31.197Z,4.75
2022-09-17T06:37:59.766Z,5.25
2022-09-17T06:40:28.672Z,3.97
2022-09-17T06:42:59.965Z,5.80
2022-09-17T06:45:29.269Z,3.97
2022-09-17T06:47:58.188Z,2.72
2022-09-17T06:50:26.937Z,3.20
2022-09-17T06:52:56.092Z,3.55
2022-09-17T06:55:24.868Z,3.25
2022-09-17T06:57:53.689Z,4.72
2022-09-17T07:00:23.609Z,4.65
2022-09-17T07:02:59.204Z,3.80
2022-09-17T07:05:32.874Z,2.95
2022-09-17T07:08:04.013Z,5.03
2022-09-17T07:10:33.507Z,4.00
2022-09-17T07:13:02.069Z,6.88
2022-09-17T07:15:32.581Z,3.05
2022-09-17T07:18:02.625Z,3.40
2022-09-17T07:20:31.474Z,3.38
2022-09-17T07:23:00.232Z,5.22
2022-09-17T07:25:28.896Z,3.72
2022-09-17T07:32:32.347Z,2.78
2022-09-17T07:35:01.557Z,3.88
2022-09-17T07:37:30.500Z,3.90
2022-09-17T07:39:59.420Z,5.07
2022-09-17T07:42:28.475Z,3.60
2022-09-17T07:45:01.271Z,5.25
2022-09-17T07:47:33.187Z,2.58
2022-09-17T07:50:01.767Z,4.90
2022-09-17T07:52:30.331Z,3.55
2022-09-17T07:54:59.120Z,4.20
2022-09-17T08:01:59.532Z,3.08
2022-09-17T08:04:29.790Z,3.65
2022-09-17T08:07:00.295Z,2.85
2022-09-17T08:09:29.043Z,3.92
2022-09-17T08:11:57.801Z,5.53
2022-09-17T08:14:29.643Z,6.38
2022-09-17T08:16:59.009Z,7.40
2022-09-17T08:19:32.917Z,4.28
2022-09-17T08:22:01.870Z,4.88
2022-09-17T08:24:31.194Z,6.32
2022-09-17T08:31:33.340Z,3.55
2022-09-17T08:34:02.427Z,5.80
2022-09-17T08:36:32.441Z,3.47
2022-09-17T08:39:01.711Z,4.15
2022-09-17T08:41:51.198Z,3.22
2022-09-17T08:44:27.481Z,3.45
2022-09-17T08:47:06.287Z,1.95
2022-09-17T08:49:41.486Z,2.80
2022-09-17T08:52:55.516Z,2.83
2022-09-17T08:55:38.387Z,2.17
2022-09-17T08:58:35.337Z,1.80
2022-09-17T09:01:21.159Z,9.00
2022-09-17T09:04:13.863Z,5.30
2022-09-17T09:08:22.837Z,7.25
2022-09-17T09:10:57.429Z,2.72
2022-09-17T09:13:34.792Z,5.18
2022-09-17T09:16:08.295Z,5.10
2022-09-17T09:18:41.557Z,4.18
2022-09-17T09:21:28.099Z,2.53
2022-09-17T09:24:01.988Z,2.30
2022-09-17T09:26:46.020Z,2.92
2022-09-17T09:29:29.082Z,4.53
2022-09-17T09:32:20.003Z,2.17
2022-09-17T09:34:51.069Z,3.33
2022-09-17T09:37:28.204Z,2.80
2022-09-17T09:40:05.077Z,3.33
2022-09-17T09:42:40.798Z,5.38
2022-09-17T09:50:08.235Z,3.92
2022-09-17T09:52:58.736Z,1.88
2022-09-17T09:55:52.262Z,1.40
2022-09-17T09:58:33.215Z,3.58
2022-09-17T10:01:01.804Z,2.35
2022-09-17T10:03:33.293Z,3.08
2022-09-17T10:06:05.611Z,1.95
2022-09-17T10:08:37.786Z,2.25
2022-09-17T10:11:21.133Z,1.98
2022-09-17T10:13:52.060Z,2.03
2022-09-17T10:16:25.343Z,2.45
2022-09-17T10:19:16.798Z,2.80
2022-09-17T10:21:45.698Z,1.63
2022-09-17T10:24:26.027Z,1.60
2022-09-17T10:27:03.770Z,2.83
2022-09-17T10:29:35.673Z,2.53
2022-09-17T10:32:07.010Z,2.25
2022-09-17T10:34:36.205Z,2.65
2022-09-17T10:37:04.876Z,2.92
2022-09-17T10:39:36.736Z,2.25
2022-09-17T10:42:14.090Z,3.67
2022-09-17T10:44:54.742Z,2.65
2022-09-17T10:47:29.106Z,2.13
2022-09-17T10:50:01.440Z,2.42
2022-09-17T10:52:35.845Z,1.92
2022-09-17T10:55:26.658Z,4.18
2022-09-17T10:58:16.134Z,4.15
2022-09-17T11:05:41.234Z,2.45
2022-09-17T11:08:21.195Z,2.47
2022-09-17T11:11:03.979Z,2.22
2022-09-17T11:13:45.602Z,3.72
2022-09-17T11:16:34.971Z,3.20
2022-09-17T11:19:20.775Z,1.85
2022-09-17T11:26:36.719Z,1.60
2022-09-17T11:29:36.946Z,2.65
2022-09-17T11:32:27.328Z,3.78
2022-09-17T11:35:03.850Z,3.40
2022-09-17T11:37:38.987Z,1.48
2022-09-17T11:40:18.741Z,2.33
2022-09-17T11:42:56.257Z,2.78
2022-09-17T11:45:32.297Z,2.05
2022-09-17T11:48:11.701Z,1.70
2022-09-17T11:50:48.779Z,1.38
2022-09-17T11:53:24.624Z,1.60
2022-09-17T11:56:02.513Z,3.60
2022-09-17T11:58:43.412Z,2.00
2022-09-17T12:01:22.667Z,1.30
2022-09-17T12:03:56.626Z,3.17
2022-09-17T12:06:53.492Z,2.67
2022-09-17T12:09:28.179Z,1.92
2022-09-17T12:12:05.011Z,1.02
2022-09-17T12:14:50.171Z,1.65
2022-09-17T12:17:26.082Z,1.83
2022-09-17T12:20:00.237Z,1.90
2022-09-17T12:22:40.062Z,2.10
2022-09-17T12:25:14.184Z,2.90
2022-09-17T12:27:55.588Z,3.00
2022-09-17T12:30:33.364Z,1.30
2022-09-17T12:33:17.915Z,2.80
2022-09-17T12:36:14.853Z,2.20
2022-09-17T12:39:15.267Z,2.08
2022-09-17T12:41:57.805Z,2.35
2022-09-17T12:44:56.442Z,2.25
2022-09-17T12:48:22.649Z,2.28
2022-09-17T12:51:09.775Z,1.88
2022-09-17T12:53:44.800Z,2.17
2022-09-17T12:56:47.097Z,2.60
2022-09-17T12:59:20.349Z,2.38
2022-09-17T13:01:58.986Z,2.28
2022-09-17T13:05:09.049Z,2.42
2022-09-17T13:08:07.438Z,3.30
2022-09-17T13:11:15.258Z,3.88
2022-09-17T13:13:57.114Z,1.50
2022-09-17T13:16:38.084Z,5.18
2022-09-17T13:19:22.794Z,3.63
2022-09-17T13:22:01.110Z,2.45
2022-09-17T13:24:33.257Z,1.40
2022-09-17T13:27:05.230Z,1.98
2022-09-17T13:30:00.724Z,2.75
2022-09-17T13:32:55.223Z,1.38
2022-09-17T13:35:53.323Z,2.35
2022-09-17T13:38:24.867Z,1.88
2022-09-17T13:41:21.787Z,2.58
2022-09-17T13:43:54.399Z,2.10
2022-09-17T13:46:26.446Z,1.90
2022-09-17T13:49:02.435Z,1.90
2022-09-17T13:51:55.339Z,1.95
2022-09-17T13:54:39.780Z,2.97
2022-09-17T13:57:16.446Z,2.78
2022-09-17T13:59:59.097Z,2.03
2022-09-17T14:02:38.597Z,4.50
2022-09-17T14:05:37.935Z,2.15
2022-09-17T14:08:31.347Z,3.00
2022-09-17T14:11:05.965Z,2.83
2022-09-17T14:13:53.291Z,3.10
2022-09-17T14:16:47.481Z,3.35
2022-09-17T14:19:29.803Z,3.70
2022-09-17T14:22:03.025Z,5.85
2022-09-17T14:24:39.215Z,3.90
2022-09-17T14:27:15.888Z,3.90
2022-09-17T14:30:16.011Z,4.30
2022-09-17T14:32:57.427Z,4.22
2022-09-17T14:35:35.632Z,3.08
2022-09-17T14:38:12.597Z,4.38
2022-09-17T14:40:46.486Z,2.40
2022-09-17T14:43:28.421Z,2.38
2022-09-17T14:45:58.749Z,2.55
2022-09-17T14:48:31.370Z,2.50
2022-09-17T14:51:30.218Z,2.40
2022-09-17T14:54:26.304Z,3.10
2022-09-17T14:57:01.779Z,2.53
2022-09-17T14:59:49.670Z,2.60
2022-09-17T15:02:37.827Z,4.97
2022-09-17T15:05:24.084Z,3.75
2022-09-17T15:07:53.108Z,2.70
2022-09-17T15:10:23.803Z,4.05
2022-09-17T15:12:55.199Z,3.00
2022-09-17T15:15:28.084Z,3.03
2022-09-17T15:17:56.889Z,3.20
2022-09-17T15:20:31.342Z,3.47
2022-09-17T15:23:15.247Z,3.85
2022-09-17T15:25:48.383Z,4.75
2022-09-17T15:28:31.565Z,4.90
2022-09-17T15:31:02.564Z,3.97
2022-09-17T15:33:34.439Z,4.63
2022-09-17T15:36:22.314Z,4.88
2022-09-17T15:38:52.193Z,4.20
2022-09-17T15:41:32.068Z,4.00
2022-09-17T15:44:31.220Z,4.75
2022-09-17T15:47:52.110Z,3.97
2022-09-17T15:50:24.508Z,3.90
2022-09-17T15:53:14.173Z,5.63
2022-09-17T15:55:48.155Z,3.50
2022-09-17T15:58:27.807Z,4.63
2022-09-17T16:01:51.943Z,4.00
2022-09-17T16:04:36.308Z,5.20
2022-09-17T16:07:30.447Z,4.75
2022-09-17T16:09:59.494Z,4.70
2022-09-17T16:12:30.037Z,4.45
2022-09-17T16:15:01.400Z,4.75
2022-09-17T16:17:35.818Z,6.18
2022-09-17T16:20:16.831Z,6.30
2022-09-17T16:22:48.051Z,4.85
2022-09-17T16:25:17.611Z,5.13
2022-09-17T16:27:52.430Z,5.63
2022-09-17T16:30:24.326Z,6.70
2022-09-17T16:32:53.808Z,5.35
2022-09-17T16:35:26.352Z,5.22
2022-09-17T16:37:57.744Z,6.03
2022-09-17T16:40:29.085Z,6.43
2022-09-17T16:43:01.247Z,6.22
2022-09-17T16:45:30.719Z,5.53
2022-09-17T16:47:59.696Z,5.57
2022-09-17T16:50:30.055Z,7.90
2022-09-17T16:53:04.116Z,6.30
2022-09-17T16:55:33.891Z,6.43
2022-09-17T16:58:04.130Z,6.40
2022-09-17T17:00:32.844Z,6.30
2022-09-17T17:03:01.678Z,5.70
2022-09-17T17:05:37.045Z,6.45
2022-09-17T17:08:06.972Z,7.22
2022-09-17T17:10:37.035Z,6.80
2022-09-17T17:13:06.306Z,11.00
2022-09-17T17:15:35.046Z,7.90
2022-09-17T17:18:03.888Z,8.98
2022-09-17T17:20:36.380Z,8.98
2022-09-17T17:23:05.271Z,9.57
2022-09-17T17:25:34.810Z,7.88
2022-09-17T17:28:03.841Z,9.15
2022-09-17T17:30:34.989Z,10.05
2022-09-17T17:33:04.286Z,11.35
2022-09-17T17:35:34.382Z,11.63
2022-09-17T17:38:03.296Z,8.93
2022-09-17T17:40:32.076Z,12.05
2022-09-17T17:43:00.902Z,13.52
2022-09-17T17:45:29.852Z,16.10
2022-09-17T17:47:58.643Z,13.15
2022-09-17T17:50:27.256Z,15.73
2022-09-17T17:52:57.754Z,15.60
2022-09-17T17:55:26.609Z,15.80
2022-09-17T17:58:01.352Z,18.13
2022-09-17T18:00:30.754Z,15.43
2022-09-17T18:02:59.363Z,17.80
2022-09-17T18:05:28.415Z,15.98
2022-09-17T18:07:58.536Z,16.90
2022-09-17T18:10:27.873Z,16.00
2022-09-17T18:12:56.539Z,21.98
2022-09-17T18:15:25.340Z,21.67
2022-09-17T18:17:54.606Z,23.63
2022-09-17T18:20:23.217Z,17.58
2022-09-17T18:22:52.027Z,16.92
2022-09-17T18:25:21.990Z,15.30
2022-09-17T18:27:50.885Z,15.30
2022-09-17T18:30:19.654Z,16.42
2022-09-17T18:32:49.546Z,14.35
2022-09-17T18:35:20.063Z,13.43
2022-09-17T18:37:48.853Z,12.80
2022-09-17T18:40:17.996Z,11.98
2022-09-17T18:42:50.017Z,15.35
2022-09-17T18:45:18.933Z,14.23
2022-09-17T18:47:47.533Z,14.60
2022-09-17T18:50:16.479Z,12.45
2022-09-17T18:52:45.423Z,13.60
2022-09-17T18:55:14.233Z,12.90
2022-09-17T18:57:43.205Z,13.90
2022-09-17T19:00:14.372Z,17.98
2022-09-17T19:02:43.172Z,19.30
2022-09-17T19:05:12.853Z,20.00
2022-09-17T19:07:45.949Z,21.98
2022-09-17T19:10:15.640Z,21.65
2022-09-17T19:12:44.538Z,23.45
2022-09-17T19:15:14.687Z,21.13
2022-09-17T19:17:43.583Z,25.27
2022-09-17T19:20:12.489Z,35.45
2022-09-17T19:22:41.218Z,36.05
2022-09-17T19:25:10.350Z,32.28
2022-09-17T19:27:39.366Z,31.50
2022-09-17T19:30:09.963Z,32.15
2022-09-17T19:32:43.097Z,27.98
2022-09-17T19:35:12.579Z,27.23
2022-09-17T19:37:41.369Z,22.88
2022-09-17T19:40:12.099Z,24.75
2022-09-17T19:42:41.095Z,22.10
2022-09-17T19:45:11.675Z,23.63
2022-09-17T19:47:42.535Z,20.38
2022-09-17T19:50:11.629Z,23.83
2022-09-17T19:52:42.109Z,24.85
2022-09-17T19:55:13.056Z,25.45
2022-09-17T19:57:42.577Z,25.75
2022-09-17T20:00:12.589Z,28.25
2022-09-17T20:02:44.697Z,34.75
2022-09-17T20:05:13.581Z,36.17
2022-09-17T20:07:43.183Z,37.10
2022-09-17T20:10:12.477Z,41.10
2022-09-17T20:12:41.189Z,38.22
2022-09-17T20:15:11.020Z,41.88
2022-09-17T20:17:39.633Z,36.55
2022-09-17T20:20:11.151Z,35.38
2022-09-17T20:22:41.039Z,33.25
2022-09-17T20:25:10.990Z,41.10
2022-09-17T20:27:39.678Z,33.58
2022-09-17T20:30:10.030Z,33.22
2022-09-17T20:32:38.971Z,30.83
2022-09-17T20:35:10.377Z,31.60
2022-09-17T20:40:27.864Z,33.92
2022-09-17T20:42:57.524Z,32.25
2022-09-17T20:45:27.454Z,26.30
2022-09-17T20:47:56.432Z,28.02
2022-09-17T20:50:26.945Z,26.15
2022-09-17T20:52:55.558Z,24.85
2022-09-17T20:55:24.475Z,23.55
2022-09-17T20:57:54.534Z,21.48
2022-09-17T21:00:26.168Z,21.80
2022-09-17T21:02:56.386Z,18.60
2022-09-17T21:05:26.291Z,20.20
2022-09-17T21:07:54.872Z,21.38
2022-09-17T21:10:23.575Z,16.50
2022-09-17T21:12:52.093Z,19.02
2022-09-17T21:15:20.718Z,19.20
2022-09-17T21:17:49.510Z,16.85
2022-09-17T21:20:18.137Z,16.55
2022-09-17T21:22:48.087Z,14.90
2022-09-17T21:25:17.176Z,15.82
2022-09-17T21:27:45.708Z,15.70
2022-09-17T21:30:14.838Z,15.48
2022-09-17T21:32:43.541Z,12.75
2022-09-17T21:35:12.180Z,13.70
2022-09-17T21:37:40.701Z,14.15
2022-09-17T21:40:12.069Z,14.70
2022-09-17T21:42:40.722Z,13.93
2022-09-17T21:45:09.920Z,14.40
2022-09-17T21:47:38.798Z,12.25
2022-09-17T21:50:08.712Z,12.93
2022-09-17T21:52:37.333Z,12.48
2022-09-17T21:55:07.960Z,13.13
2022-09-17T21:57:38.030Z,13.43
2022-09-17T22:00:10.246Z,14.57
2022-09-17T22:02:38.988Z,13.55
2022-09-17T22:05:08.467Z,12.88
2022-09-17T22:07:37.128Z,13.80
2022-09-17T22:10:06.924Z,13.15
2022-09-17T22:12:37.248Z,12.10
2022-09-17T22:15:06.954Z,10.25
2022-09-17T22:17:35.724Z,14.80
2022-09-17T22:20:05.413Z,12.52
2022-09-17T22:27:06.854Z,9.35
2022-09-17T22:29:36.940Z,10.80
2022-09-17T22:32:05.846Z,9.60
2022-09-17T22:34:34.698Z,11.77
2022-09-17T22:37:03.532Z,11.98
2022-09-17T22:39:32.253Z,10.40
2022-09-17T22:42:00.989Z,10.30
2022-09-17T22:44:29.745Z,11.65
2022-09-17T22:46:59.704Z,11.10
2022-09-17T22:49:28.520Z,9.10
2022-09-17T22:51:57.130Z,8.63
2022-09-17T22:54:25.902Z,9.60
2022-09-17T22:56:54.656Z,12.38
2022-09-17T22:59:23.232Z,9.73
2022-09-17T23:01:51.872Z,9.10
2022-09-17T23:04:22.059Z,8.13
2022-09-17T23:06:50.685Z,8.63
2022-09-17T23:09:19.241Z,8.05
2022-09-17T23:11:48.061Z,7.10
2022-09-17T23:14:16.994Z,6.85
2022-09-17T23:16:48.032Z,8.90
2022-09-17T23:19:21.403Z,7.10
2022-09-17T23:21:50.945Z,6.72
2022-09-17T23:24:22.676Z,7.32
2022-09-17T23:26:52.531Z,7.03
2022-09-17T23:29:21.412Z,5.97
2022-09-17T23:31:50.060Z,6.97
2022-09-17T23:34:18.674Z,7.82
2022-09-17T23:36:48.939Z,7.00
2022-09-17T23:39:17.565Z,6.43
2022-09-17T23:41:48.026Z,6.22
2022-09-17T23:44:17.424Z,5.13
2022-09-17T23:46:47.459Z,5.03
2022-09-17T23:49:17.146Z,5.78
2022-09-17T23:51:46.232Z,8.68
2022-09-17T23:54:16.467Z,8.25
2022-09-17T23:56:45.180Z,5.22
2022-09-17T23:59:14.167Z,6.47
